createdAt,value
2019-04-29T00:00:45.619Z,4.60
2019-04-29T00:01:45.607Z,4.20
2019-04-29T00:02:45.594Z,4.50
2019-04-29T00:03:45.589Z,4.50
2019-04-29T00:04:45.583Z,4.90
2019-04-29T00:05:45.574Z,4.90
2019-04-29T00:06:45.566Z,3.80
2019-04-29T00:07:45.553Z,3.70
2019-04-29T00:08:45.545Z,4.10
2019-04-29T00:09:45.531Z,3.80
2019-04-29T00:10:45.521Z,6.40
2019-04-29T00:11:45.514Z,5.50
2019-04-29T00:12:45.507Z,4.40
2019-04-29T00:13:45.499Z,4.90
2019-04-29T00:14:45.491Z,5.40
2019-04-29T00:15:45.488Z,4.30
2019-04-29T00:16:45.467Z,4.60
2019-04-29T00:17:45.463Z,4.30
2019-04-29T00:18:45.451Z,4.60
2019-04-29T00:19:45.441Z,4.80
2019-04-29T00:20:45.437Z,4.50
2019-04-29T00:21:45.416Z,5.60
2019-04-29T00:22:45.407Z,4.20
2019-04-29T00:23:45.398Z,4.80
2019-04-29T00:24:45.389Z,5.20
2019-04-29T00:25:45.385Z,4.80
2019-04-29T00:26:45.375Z,4.90
2019-04-29T00:27:45.366Z,4.60
2019-04-29T00:28:45.365Z,4.90
2019-04-29T00:29:45.343Z,4.00
2019-04-29T00:30:45.336Z,4.30
2019-04-29T00:31:45.329Z,4.20
2019-04-29T00:32:45.319Z,4.10
2019-04-29T00:33:45.308Z,4.10
2019-04-29T00:34:45.295Z,4.60
2019-04-29T00:35:45.285Z,3.60
2019-04-29T00:36:45.278Z,3.80
2019-04-29T00:37:45.268Z,4.00
2019-04-29T00:38:45.265Z,4.10
2019-04-29T00:39:45.251Z,4.20
2019-04-29T00:40:45.241Z,4.20
2019-04-29T00:41:45.226Z,3.70
2019-04-29T00:42:45.221Z,4.40
2019-04-29T00:43:45.210Z,3.50
2019-04-29T00:44:45.201Z,4.10
2019-04-29T00:45:45.194Z,4.30
2019-04-29T00:46:45.191Z,6.40
2019-04-29T00:47:45.173Z,3.80
2019-04-29T00:48:45.165Z,3.80
2019-04-29T00:49:45.158Z,4.60
2019-04-29T00:50:45.148Z,4.20
2019-04-29T00:51:45.136Z,4.10
2019-04-29T00:52:45.127Z,3.60
2019-04-29T00:53:45.113Z,4.00
2019-04-29T00:54:45.103Z,6.00
2019-04-29T00:55:45.099Z,3.40
2019-04-29T00:56:45.092Z,3.80
2019-04-29T00:57:45.077Z,3.90
2019-04-29T00:58:45.068Z,3.90
2019-04-29T00:59:45.064Z,3.40
2019-04-29T01:00:45.056Z,3.80
2019-04-29T01:01:45.040Z,3.90
2019-04-29T01:02:45.029Z,4.40
2019-04-29T01:03:45.027Z,3.70
2019-04-29T01:04:45.014Z,3.90
2019-04-29T01:05:45.063Z,3.50
2019-04-29T01:06:44.991Z,4.20
2019-04-29T01:07:44.979Z,4.20
2019-04-29T01:08:44.972Z,4.20
2019-04-29T01:09:44.963Z,3.40
2019-04-29T01:10:44.955Z,4.20
2019-04-29T01:11:44.946Z,3.80
2019-04-29T01:12:44.933Z,4.10
2019-04-29T01:13:44.926Z,4.30
2019-04-29T01:14:44.918Z,3.50
2019-04-29T01:15:44.909Z,3.80
2019-04-29T01:16:44.907Z,4.30
2019-04-29T01:17:44.888Z,3.80
2019-04-29T01:18:44.877Z,3.60
2019-04-29T01:19:44.870Z,4.10
2019-04-29T01:20:44.859Z,4.40
2019-04-29T01:21:44.846Z,3.90
2019-04-29T01:22:44.835Z,4.40
2019-04-29T01:23:44.823Z,5.50
2019-04-29T01:24:44.814Z,5.20
2019-04-29T01:25:44.808Z,3.80
2019-04-29T01:26:44.798Z,4.10
2019-04-29T01:27:44.789Z,5.10
2019-04-29T01:28:44.780Z,6.60
2019-04-29T01:29:44.769Z,4.20
2019-04-29T01:30:44.756Z,5.30
2019-04-29T01:31:44.749Z,4.10
2019-04-29T01:32:44.739Z,4.40
2019-04-29T01:33:44.733Z,3.80
2019-04-29T01:34:44.721Z,4.50
2019-04-29T01:35:44.709Z,5.00
2019-04-29T01:36:44.708Z,4.90
2019-04-29T01:37:44.694Z,5.20
2019-04-29T01:38:44.682Z,5.70
2019-04-29T01:39:44.674Z,6.20
2019-04-29T01:40:44.661Z,5.50
2019-04-29T01:41:44.647Z,6.30
2019-04-29T01:42:44.640Z,6.10
2019-04-29T01:43:44.629Z,6.70
2019-04-29T01:44:44.620Z,4.60
2019-04-29T01:45:44.611Z,5.90
2019-04-29T01:46:44.604Z,5.10
2019-04-29T01:47:44.602Z,5.40
2019-04-29T01:48:44.587Z,4.40
2019-04-29T01:49:44.572Z,5.50
2019-04-29T01:50:44.560Z,6.20
2019-04-29T01:51:44.555Z,4.80
2019-04-29T01:52:44.546Z,4.60
2019-04-29T01:53:44.532Z,4.30
2019-04-29T01:54:44.582Z,5.20
2019-04-29T01:55:44.512Z,3.90
2019-04-29T01:56:44.501Z,4.10
2019-04-29T01:57:44.495Z,4.10
2019-04-29T01:58:44.486Z,5.80
2019-04-29T01:59:44.475Z,5.10
2019-04-29T02:00:44.466Z,3.90
2019-04-29T02:01:44.452Z,4.40
2019-04-29T02:02:44.441Z,4.30
2019-04-29T02:03:44.436Z,4.30
2019-04-29T02:04:44.426Z,5.00
2019-04-29T02:05:44.417Z,5.10
2019-04-29T02:06:44.409Z,6.10
2019-04-29T02:07:44.395Z,7.20
2019-04-29T02:08:44.385Z,5.70
2019-04-29T02:09:44.379Z,6.20
2019-04-29T02:10:44.369Z,5.40
2019-04-29T02:11:44.357Z,5.60
2019-04-29T02:12:44.347Z,5.00
2019-04-29T02:13:44.334Z,6.30
2019-04-29T02:14:44.325Z,5.20
2019-04-29T02:15:44.318Z,4.30
2019-04-29T02:16:44.306Z,4.80
2019-04-29T02:17:44.300Z,4.90
2019-04-29T02:18:44.296Z,5.90
2019-04-29T02:19:44.279Z,4.80
2019-04-29T02:20:44.269Z,5.60
2019-04-29T02:21:44.254Z,4.50
2019-04-29T02:22:44.244Z,4.60
2019-04-29T02:23:44.238Z,5.80
2019-04-29T02:24:44.228Z,6.40
2019-04-29T02:25:44.213Z,4.20
2019-04-29T02:26:44.203Z,6.50
2019-04-29T02:27:44.197Z,4.70
2019-04-29T02:28:44.189Z,5.40
2019-04-29T02:29:44.180Z,4.70
2019-04-29T02:30:44.180Z,5.00
2019-04-29T02:31:44.166Z,4.90
2019-04-29T02:32:44.154Z,4.90
2019-04-29T02:33:44.138Z,6.60
2019-04-29T02:34:44.128Z,4.90
2019-04-29T02:35:44.117Z,4.30
2019-04-29T02:36:44.105Z,4.30
2019-04-29T02:37:44.100Z,5.30
2019-04-29T02:38:44.091Z,4.70
2019-04-29T02:39:44.077Z,5.20
2019-04-29T02:40:44.069Z,6.40
2019-04-29T02:41:44.060Z,5.70
2019-04-29T02:42:44.054Z,7.80
2019-04-29T02:43:44.043Z,5.40
2019-04-29T02:44:44.034Z,6.00
2019-04-29T02:45:44.021Z,6.70
2019-04-29T02:46:44.008Z,8.60
2019-04-29T02:47:43.999Z,6.30
2019-04-29T02:48:43.991Z,6.80
2019-04-29T02:49:43.985Z,7.30
2019-04-29T02:50:43.972Z,7.10
2019-04-29T02:51:43.963Z,7.10
2019-04-29T02:52:43.951Z,7.00
2019-04-29T02:53:43.936Z,6.40
2019-04-29T02:54:43.932Z,6.80
2019-04-29T02:55:43.921Z,7.30
2019-04-29T02:56:43.914Z,6.20
2019-04-29T02:57:43.895Z,5.90
2019-04-29T02:58:43.886Z,8.30
2019-04-29T02:59:43.878Z,7.60
2019-04-29T03:00:43.867Z,7.00
2019-04-29T03:01:43.862Z,6.60
2019-04-29T03:02:43.907Z,6.50
2019-04-29T03:03:43.840Z,6.50
2019-04-29T03:04:43.832Z,6.40
2019-04-29T03:05:43.816Z,5.90
2019-04-29T03:06:43.807Z,6.30
2019-04-29T03:07:43.797Z,6.30
2019-04-29T03:08:43.789Z,6.50
2019-04-29T03:09:43.778Z,6.30
2019-04-29T03:10:43.770Z,6.10
2019-04-29T03:11:43.760Z,6.00
2019-04-29T03:12:43.744Z,6.30
2019-04-29T03:13:43.739Z,6.20
2019-04-29T03:14:43.728Z,6.40
2019-04-29T03:15:43.720Z,7.10
2019-04-29T03:16:43.710Z,6.20
2019-04-29T03:17:43.696Z,7.20
2019-04-29T03:18:43.687Z,8.30
2019-04-29T03:19:43.672Z,6.00
2019-04-29T03:20:43.664Z,7.60
2019-04-29T03:21:43.666Z,6.80
2019-04-29T03:22:43.647Z,7.10
2019-04-29T03:23:43.640Z,9.50
2019-04-29T03:24:43.629Z,8.40
2019-04-29T03:25:43.622Z,7.80
2019-04-29T03:26:43.614Z,7.80
2019-04-29T03:27:43.612Z,7.40
2019-04-29T03:28:43.592Z,7.10
2019-04-29T03:29:43.573Z,6.00
2019-04-29T03:30:43.572Z,5.80
2019-04-29T03:31:43.554Z,7.10
2019-04-29T03:32:43.549Z,7.00
2019-04-29T03:33:43.572Z,6.40
2019-04-29T03:34:43.524Z,7.20
2019-04-29T03:35:43.516Z,6.90
2019-04-29T03:36:43.505Z,6.20
2019-04-29T03:37:43.489Z,5.60
2019-04-29T03:38:43.480Z,6.90
2019-04-29T03:39:43.472Z,5.80
2019-04-29T03:40:43.463Z,6.00
2019-04-29T03:41:43.456Z,5.50
2019-04-29T03:42:43.449Z,5.70
2019-04-29T03:43:43.432Z,7.00
2019-04-29T03:44:43.423Z,6.20
2019-04-29T03:45:43.414Z,6.80
2019-04-29T03:46:43.406Z,8.80
2019-04-29T03:47:43.398Z,5.80
2019-04-29T03:48:43.488Z,6.70
2019-04-29T03:49:43.367Z,6.00
2019-04-29T03:50:43.360Z,7.20
2019-04-29T03:51:43.348Z,6.40
2019-04-29T03:52:43.345Z,7.00
2019-04-29T03:53:43.330Z,7.20
2019-04-29T03:54:43.321Z,6.40
2019-04-29T03:55:43.314Z,6.30
2019-04-29T03:56:43.304Z,6.50
2019-04-29T03:57:43.290Z,6.40
2019-04-29T03:58:43.284Z,6.10
2019-04-29T03:59:43.271Z,7.10
2019-04-29T04:00:44.282Z,7.20
2019-04-29T04:01:43.248Z,6.90
2019-04-29T04:02:43.237Z,6.90
2019-04-29T04:03:43.227Z,6.40
2019-04-29T04:04:43.215Z,6.50
2019-04-29T04:05:43.207Z,5.60
2019-04-29T04:06:43.205Z,6.10
2019-04-29T04:07:43.187Z,6.20
2019-04-29T04:08:43.204Z,6.00
2019-04-29T04:09:43.166Z,5.90
2019-04-29T04:10:43.158Z,6.50
2019-04-29T04:11:43.152Z,5.90
2019-04-29T04:12:43.134Z,6.60
2019-04-29T04:13:43.128Z,7.50
2019-04-29T04:14:43.118Z,5.80
2019-04-29T04:15:43.104Z,5.80
2019-04-29T04:16:43.095Z,6.00
2019-04-29T04:17:43.088Z,5.70
2019-04-29T04:18:43.082Z,8.00
2019-04-29T04:19:43.066Z,9.50
2019-04-29T04:20:43.053Z,7.20
2019-04-29T04:21:43.039Z,7.10
2019-04-29T04:22:43.037Z,7.00
2019-04-29T04:23:43.023Z,6.90
2019-04-29T04:24:43.012Z,6.20
2019-04-29T04:25:43.005Z,7.20
2019-04-29T04:26:43.001Z,5.50
2019-04-29T04:27:42.984Z,6.80
2019-04-29T04:28:42.974Z,6.20
2019-04-29T04:29:42.958Z,6.30
2019-04-29T04:30:42.951Z,6.10
2019-04-29T04:31:42.944Z,7.60
2019-04-29T04:32:42.934Z,5.90
2019-04-29T04:33:42.918Z,5.60
2019-04-29T04:34:42.909Z,5.70
2019-04-29T04:35:42.906Z,8.20
2019-04-29T04:36:42.949Z,5.60
2019-04-29T04:37:42.884Z,4.90
2019-04-29T04:38:42.876Z,5.80
2019-04-29T04:39:42.864Z,6.10
2019-04-29T04:40:42.856Z,5.70
2019-04-29T04:41:42.841Z,7.10
2019-04-29T04:42:42.838Z,6.00
2019-04-29T04:43:42.819Z,5.50
2019-04-29T04:44:42.811Z,6.10
2019-04-29T04:45:42.807Z,6.50
2019-04-29T04:46:42.795Z,6.60
2019-04-29T04:47:42.783Z,5.70
2019-04-29T04:48:42.771Z,5.70
2019-04-29T04:49:42.768Z,7.70
2019-04-29T04:50:42.757Z,6.20
2019-04-29T04:51:42.754Z,6.10
2019-04-29T04:52:42.762Z,6.40
2019-04-29T04:53:42.730Z,5.80
2019-04-29T04:54:42.719Z,6.50
2019-04-29T04:55:42.711Z,6.20
2019-04-29T04:56:42.701Z,6.00
2019-04-29T04:57:42.697Z,6.50
2019-04-29T04:58:42.688Z,5.90
2019-04-29T04:59:42.677Z,6.30
2019-04-29T05:00:42.670Z,7.30
2019-04-29T05:01:42.656Z,6.80
2019-04-29T05:02:42.648Z,6.70
2019-04-29T05:03:42.645Z,5.50
2019-04-29T05:04:42.637Z,7.30
2019-04-29T05:05:42.927Z,5.90
2019-04-29T05:06:42.618Z,5.80
2019-04-29T05:07:42.613Z,5.70
2019-04-29T05:08:42.606Z,5.40
2019-04-29T05:09:42.603Z,5.90
2019-04-29T05:10:42.594Z,4.90
2019-04-29T05:11:42.591Z,5.30
2019-04-29T05:12:42.583Z,7.50
2019-04-29T05:13:42.570Z,4.90
2019-04-29T05:14:42.564Z,4.50
2019-04-29T05:15:42.556Z,6.70
2019-04-29T05:16:42.608Z,5.70
2019-04-29T05:17:42.545Z,5.50
2019-04-29T05:18:42.542Z,5.30
2019-04-29T05:19:42.530Z,4.80
2019-04-29T05:20:42.525Z,4.60
2019-04-29T05:21:42.523Z,5.10
2019-04-29T05:22:42.519Z,5.10
2019-04-29T05:23:42.515Z,5.60
2019-04-29T05:24:42.508Z,4.40
2019-04-29T05:25:42.499Z,5.80
2019-04-29T05:26:42.494Z,6.40
2019-04-29T05:27:42.489Z,4.10
2019-04-29T05:28:42.486Z,4.10
2019-04-29T05:29:42.484Z,5.10
2019-04-29T05:30:42.480Z,4.40
2019-04-29T05:31:42.477Z,5.70
2019-04-29T05:32:42.469Z,5.40
2019-04-29T05:33:42.460Z,4.70
2019-04-29T05:34:46.608Z,4.70
2019-04-29T05:35:42.456Z,5.80
2019-04-29T05:36:42.452Z,6.50
2019-04-29T05:37:42.443Z,4.90
2019-04-29T05:38:42.441Z,4.90
2019-04-29T05:39:42.442Z,6.10
2019-04-29T05:40:42.436Z,5.80
2019-04-29T05:41:42.438Z,5.00
2019-04-29T05:42:42.433Z,5.90
2019-04-29T05:43:42.433Z,4.40
2019-04-29T05:44:42.431Z,5.60
2019-04-29T05:45:46.314Z,5.30
2019-04-29T05:46:42.426Z,5.30
2019-04-29T05:47:42.417Z,5.70
2019-04-29T05:48:42.416Z,4.80
2019-04-29T05:49:42.868Z,6.20
2019-04-29T05:50:42.415Z,9.30
2019-04-29T05:51:42.409Z,5.60
2019-04-29T05:52:42.409Z,5.40
2019-04-29T05:53:42.410Z,5.10
2019-04-29T05:54:42.409Z,5.30
2019-04-29T05:55:42.412Z,6.20
2019-04-29T05:56:42.412Z,5.00
2019-04-29T05:57:42.406Z,6.30
2019-04-29T05:58:42.406Z,6.30
2019-04-29T05:59:43.361Z,5.80
2019-04-29T06:00:42.411Z,5.80
2019-04-29T06:01:42.592Z,6.00
2019-04-29T06:02:42.409Z,5.60
2019-04-29T06:03:44.272Z,5.70
2019-04-29T06:04:42.414Z,6.50
2019-04-29T06:05:42.402Z,5.80
2019-04-29T06:06:42.405Z,7.00
2019-04-29T06:07:42.410Z,5.90
2019-04-29T06:08:42.410Z,5.70
2019-04-29T06:09:42.407Z,5.50
2019-04-29T06:10:42.412Z,6.10
2019-04-29T06:11:42.413Z,6.50
2019-04-29T06:12:44.459Z,8.30
2019-04-29T06:13:42.420Z,8.40
2019-04-29T06:14:42.422Z,7.20
2019-04-29T06:15:42.423Z,6.40
2019-04-29T06:16:42.426Z,6.20
2019-04-29T06:17:44.828Z,6.40
2019-04-29T06:18:42.425Z,5.60
2019-04-29T06:19:42.427Z,6.90
2019-04-29T06:20:42.428Z,5.60
2019-04-29T06:21:42.435Z,7.80
2019-04-29T06:22:43.525Z,7.50
2019-04-29T06:23:42.439Z,7.70
2019-04-29T06:24:42.439Z,6.10
2019-04-29T06:25:42.446Z,6.70
2019-04-29T06:26:43.714Z,8.30
2019-04-29T06:27:42.457Z,8.40
2019-04-29T06:28:42.462Z,5.80
2019-04-29T06:29:42.460Z,8.40
2019-04-29T06:30:45.085Z,6.40
2019-04-29T06:31:42.462Z,7.00
2019-04-29T06:32:42.472Z,6.20
2019-04-29T06:33:42.473Z,6.80
2019-04-29T06:34:42.478Z,6.60
2019-04-29T06:35:43.367Z,6.40
2019-04-29T06:36:42.489Z,6.80
2019-04-29T06:37:42.489Z,6.80
2019-04-29T06:38:42.493Z,6.40
2019-04-29T06:39:42.500Z,6.60
2019-04-29T06:40:42.506Z,6.90
2019-04-29T06:41:45.445Z,7.10
2019-04-29T06:42:42.511Z,8.40
2019-04-29T06:43:42.514Z,7.20
2019-04-29T06:44:44.369Z,7.00
2019-04-29T06:45:42.526Z,6.90
2019-04-29T06:46:42.534Z,6.70
2019-04-29T06:47:42.539Z,7.30
2019-04-29T06:48:42.543Z,7.40
2019-04-29T06:49:42.545Z,7.60
2019-04-29T06:50:42.549Z,7.00
2019-04-29T06:51:42.558Z,8.00
2019-04-29T06:52:42.563Z,9.70
2019-04-29T06:53:42.572Z,8.50
2019-04-29T06:54:42.579Z,8.10
2019-04-29T06:55:42.580Z,7.90
2019-04-29T06:56:42.586Z,8.10
2019-04-29T06:57:42.594Z,8.20
2019-04-29T06:58:42.607Z,8.80
2019-04-29T06:59:43.034Z,9.90
2019-04-29T07:00:42.613Z,8.70
2019-04-29T07:01:42.618Z,9.60
2019-04-29T07:02:45.554Z,10.60
2019-04-29T07:03:42.625Z,8.80
2019-04-29T07:04:42.634Z,9.90
2019-04-29T07:05:42.642Z,14.40
2019-04-29T07:06:56.295Z,11.20
2019-04-29T07:07:42.659Z,11.90
2019-04-29T07:08:42.666Z,10.50
2019-04-29T07:09:42.670Z,10.30
2019-04-29T07:10:42.752Z,12.20
2019-04-29T07:11:42.687Z,11.60
2019-04-29T07:12:47.137Z,12.00
2019-04-29T07:13:42.696Z,15.50
2019-04-29T07:14:42.702Z,11.50
2019-04-29T07:15:43.468Z,12.40
2019-04-29T07:16:42.712Z,11.30
2019-04-29T07:17:43.043Z,11.30
2019-04-29T07:18:48.249Z,11.60
2019-04-29T07:19:42.742Z,11.80
2019-04-29T07:20:42.749Z,12.20
2019-04-29T07:21:47.092Z,12.20
2019-04-29T07:22:42.757Z,14.00
2019-04-29T07:23:42.763Z,11.90
2019-04-29T07:24:42.772Z,12.20
2019-04-29T07:25:42.782Z,11.40
2019-04-29T07:26:42.787Z,11.80
2019-04-29T07:27:44.259Z,12.00
2019-04-29T07:28:42.801Z,11.50
2019-04-29T07:29:42.815Z,11.60
2019-04-29T07:31:00.726Z,11.80
2019-04-29T07:31:42.823Z,11.70
2019-04-29T07:32:47.096Z,14.20
2019-04-29T07:33:42.836Z,11.80
2019-04-29T07:34:42.843Z,11.20
2019-04-29T07:35:47.367Z,11.10
2019-04-29T07:36:42.870Z,12.30
2019-04-29T07:37:42.873Z,14.30
2019-04-29T07:38:46.467Z,11.60
2019-04-29T07:39:42.888Z,12.60
2019-04-29T07:40:43.333Z,12.90
2019-04-29T07:41:42.897Z,13.20
2019-04-29T07:42:42.905Z,14.80
2019-04-29T07:43:44.170Z,14.10
2019-04-29T07:44:44.089Z,13.50
2019-04-29T07:45:44.439Z,15.10
2019-04-29T07:46:56.107Z,13.20
2019-04-29T07:47:55.755Z,13.10
2019-04-29T07:48:43.791Z,13.30
2019-04-29T07:49:42.970Z,14.40
2019-04-29T07:50:42.981Z,13.70
2019-04-29T07:51:42.989Z,13.70
2019-04-29T07:52:45.716Z,13.30
2019-04-29T07:53:45.390Z,14.70
2019-04-29T07:54:43.012Z,13.80
2019-04-29T07:55:43.017Z,15.30
2019-04-29T07:56:43.688Z,13.00
2019-04-29T07:57:43.042Z,14.00
2019-04-29T07:58:43.053Z,14.70
2019-04-29T07:59:43.063Z,16.40
2019-04-29T08:00:44.544Z,14.70
2019-04-29T08:01:43.080Z,18.70
2019-04-29T08:02:43.092Z,16.30
2019-04-29T08:03:43.116Z,17.00
2019-04-29T08:04:43.116Z,17.00
2019-04-29T08:05:43.123Z,16.80
2019-04-29T08:06:44.787Z,18.10
2019-04-29T08:07:43.145Z,16.10
2019-04-29T08:08:54.299Z,18.00
2019-04-29T08:09:44.265Z,19.70
2019-04-29T08:10:54.075Z,17.70
2019-04-29T08:11:43.190Z,17.90
2019-04-29T08:12:43.201Z,20.90
2019-04-29T08:13:43.210Z,19.50
2019-04-29T08:14:43.224Z,18.30
2019-04-29T08:15:43.683Z,18.90
2019-04-29T08:16:43.250Z,16.20
2019-04-29T08:17:43.255Z,16.10
2019-04-29T08:18:43.267Z,16.20
2019-04-29T08:19:43.284Z,15.80
2019-04-29T08:20:43.295Z,16.50
2019-04-29T08:21:45.394Z,16.20
2019-04-29T08:22:43.325Z,15.60
2019-04-29T08:23:43.339Z,16.20
2019-04-29T08:24:45.967Z,18.70
2019-04-29T08:25:43.361Z,14.40
2019-04-29T08:26:47.326Z,14.40
2019-04-29T08:27:43.873Z,16.60
2019-04-29T08:28:43.398Z,14.60
2019-04-29T08:29:43.414Z,15.40
2019-04-29T08:30:45.857Z,14.90
2019-04-29T08:31:43.437Z,14.80
2019-04-29T08:32:43.450Z,16.00
2019-04-29T08:33:46.803Z,16.00
2019-04-29T08:34:43.486Z,14.60
2019-04-29T08:35:46.608Z,13.40
2019-04-29T08:36:43.517Z,14.50
2019-04-29T08:37:43.543Z,14.60
2019-04-29T08:38:43.534Z,15.40
2019-04-29T08:39:43.542Z,14.90
2019-04-29T08:40:45.232Z,17.60
2019-04-29T08:41:43.572Z,18.10
2019-04-29T08:42:46.775Z,12.80
2019-04-29T08:43:43.599Z,14.30
2019-04-29T08:44:43.613Z,12.50
2019-04-29T08:45:43.619Z,13.80
2019-04-29T08:46:44.463Z,13.00
2019-04-29T08:47:43.651Z,12.50
2019-04-29T08:48:45.905Z,15.50
2019-04-29T08:49:43.672Z,12.50
2019-04-29T08:50:43.685Z,13.80
2019-04-29T08:51:43.694Z,12.40
2019-04-29T08:52:43.709Z,13.10
2019-04-29T08:53:43.728Z,13.50
2019-04-29T08:54:43.738Z,15.80
2019-04-29T08:55:43.749Z,13.30
2019-04-29T08:57:01.878Z,14.70
2019-04-29T08:57:43.769Z,16.30
2019-04-29T08:58:44.402Z,13.90
2019-04-29T08:59:43.795Z,15.20
2019-04-29T09:00:43.804Z,14.60
2019-04-29T09:01:43.818Z,16.00
2019-04-29T09:02:47.012Z,15.00
2019-04-29T09:03:43.838Z,18.00
2019-04-29T09:04:53.287Z,13.50
2019-04-29T09:05:46.110Z,15.20
2019-04-29T09:06:43.875Z,15.20
2019-04-29T09:07:43.883Z,15.10
2019-04-29T09:08:54.995Z,14.60
2019-04-29T09:09:43.901Z,17.30
2019-04-29T09:10:43.913Z,16.90
2019-04-29T09:11:47.936Z,19.90
2019-04-29T09:12:43.934Z,20.60
2019-04-29T09:13:43.947Z,23.20
2019-04-29T09:14:43.958Z,23.20
2019-04-29T09:15:43.969Z,24.80
2019-04-29T09:16:43.978Z,20.70
2019-04-29T09:17:43.983Z,21.50
2019-04-29T09:18:43.990Z,21.90
2019-04-29T09:19:44.005Z,22.90
2019-04-29T09:20:44.012Z,20.50
2019-04-29T09:21:44.016Z,21.40
2019-04-29T09:22:44.025Z,19.90
2019-04-29T09:23:44.026Z,19.80
2019-04-29T09:24:48.106Z,21.40
2019-04-29T09:25:44.044Z,18.00
2019-04-29T09:26:44.048Z,17.40
2019-04-29T09:27:45.103Z,20.20
2019-04-29T09:28:44.061Z,17.40
2019-04-29T09:29:46.409Z,19.10
2019-04-29T09:30:44.067Z,18.50
2019-04-29T09:31:46.692Z,20.00
2019-04-29T09:32:44.083Z,20.80
2019-04-29T09:33:48.858Z,20.60
2019-04-29T09:34:44.095Z,22.00
2019-04-29T09:35:44.095Z,24.00
2019-04-29T09:36:48.275Z,23.10
2019-04-29T09:37:44.109Z,21.80
2019-04-29T09:38:44.113Z,22.20
2019-04-29T09:39:44.117Z,19.60
2019-04-29T09:40:45.774Z,17.60
2019-04-29T09:41:44.123Z,19.30
2019-04-29T09:42:45.513Z,23.70
2019-04-29T09:43:44.143Z,16.60
2019-04-29T09:44:44.997Z,16.70
2019-04-29T09:45:44.154Z,18.40
2019-04-29T09:46:44.162Z,16.30
2019-04-29T09:47:44.168Z,15.70
2019-04-29T09:48:44.178Z,16.00
2019-04-29T09:49:44.191Z,18.70
2019-04-29T09:50:44.208Z,15.70
2019-04-29T09:51:44.208Z,15.30
2019-04-29T09:52:44.220Z,15.50
2019-04-29T09:53:44.237Z,15.30
2019-04-29T09:54:44.249Z,14.10
2019-04-29T09:55:44.263Z,15.00
2019-04-29T09:56:44.280Z,14.60
2019-04-29T09:57:44.284Z,13.10
2019-04-29T09:58:44.303Z,14.10
2019-04-29T09:59:44.310Z,12.00
2019-04-29T10:00:44.338Z,13.20
2019-04-29T10:01:44.349Z,11.70
2019-04-29T10:02:44.357Z,12.80
2019-04-29T10:03:44.370Z,12.10
2019-04-29T10:04:55.836Z,12.40
2019-04-29T10:05:44.393Z,12.30
2019-04-29T10:06:44.406Z,11.10
2019-04-29T10:07:44.424Z,11.60
2019-04-29T10:08:44.438Z,10.90
2019-04-29T10:09:56.495Z,11.60
2019-04-29T10:10:44.462Z,10.60
2019-04-29T10:11:44.480Z,9.70
2019-04-29T10:12:44.494Z,10.80
2019-04-29T10:13:44.509Z,12.00
2019-04-29T10:14:44.523Z,9.90
2019-04-29T10:15:44.536Z,11.50
2019-04-29T10:16:44.552Z,10.70
2019-04-29T10:17:45.809Z,12.40
2019-04-29T10:18:44.568Z,11.60
2019-04-29T10:19:44.576Z,11.80
2019-04-29T10:20:44.586Z,12.60
2019-04-29T10:21:44.601Z,11.60
2019-04-29T10:22:44.611Z,13.50
2019-04-29T10:23:44.616Z,11.60
2019-04-29T10:24:44.628Z,11.30
2019-04-29T10:25:44.639Z,10.40
2019-04-29T10:26:44.648Z,11.40
2019-04-29T10:27:44.662Z,10.80
2019-04-29T10:28:44.668Z,10.10
2019-04-29T10:29:44.673Z,10.40
2019-04-29T10:30:44.681Z,10.50
2019-04-29T10:31:44.691Z,11.50
2019-04-29T10:32:44.704Z,10.70
2019-04-29T10:33:44.715Z,10.80
2019-04-29T10:34:44.725Z,11.30
2019-04-29T10:35:45.208Z,11.90
2019-04-29T10:36:44.742Z,11.40
2019-04-29T10:37:44.747Z,12.00
2019-04-29T10:38:45.941Z,12.00
2019-04-29T10:39:44.780Z,11.70
2019-04-29T10:40:44.783Z,13.30
2019-04-29T10:41:44.788Z,13.00
2019-04-29T10:42:44.801Z,12.90
2019-04-29T10:43:44.813Z,13.30
2019-04-29T10:44:44.819Z,12.70
2019-04-29T10:45:44.833Z,13.40
2019-04-29T10:46:44.840Z,14.10
2019-04-29T10:47:44.843Z,12.60
2019-04-29T10:48:44.850Z,12.40
2019-04-29T10:49:44.853Z,11.60
2019-04-29T10:50:47.071Z,11.50
2019-04-29T10:51:44.869Z,12.00
2019-04-29T10:52:44.875Z,12.50
2019-04-29T10:53:46.748Z,12.80
2019-04-29T10:54:44.894Z,13.40
2019-04-29T10:55:44.895Z,12.40
2019-04-29T10:56:44.902Z,11.90
2019-04-29T10:57:49.750Z,12.50
2019-04-29T10:58:44.918Z,13.10
2019-04-29T10:59:46.116Z,12.40
2019-04-29T11:00:44.929Z,13.10
2019-04-29T11:01:44.929Z,12.10
2019-04-29T11:02:49.367Z,13.10
2019-04-29T11:03:44.945Z,11.30
2019-04-29T11:04:44.949Z,12.20
2019-04-29T11:05:59.935Z,12.20
2019-04-29T11:06:44.963Z,11.60
2019-04-29T11:07:44.972Z,13.40
2019-04-29T11:08:44.975Z,12.50
2019-04-29T11:09:46.323Z,11.20
2019-04-29T11:10:44.981Z,9.60
2019-04-29T11:11:44.991Z,10.70
2019-04-29T11:12:44.997Z,11.30
2019-04-29T11:13:49.863Z,12.90
2019-04-29T11:14:45.003Z,12.70
2019-04-29T11:15:49.276Z,11.50
2019-04-29T11:16:46.977Z,10.80
2019-04-29T11:17:46.423Z,11.00
2019-04-29T11:18:45.032Z,11.20
2019-04-29T11:19:45.040Z,11.80
2019-04-29T11:20:48.927Z,11.50
2019-04-29T11:21:45.049Z,11.00
2019-04-29T11:22:45.054Z,10.90
2019-04-29T11:23:45.063Z,11.70
2019-04-29T11:24:45.071Z,11.80
2019-04-29T11:25:50.981Z,10.90
2019-04-29T11:26:45.089Z,11.60
2019-04-29T11:27:45.085Z,12.70
2019-04-29T11:28:47.008Z,12.30
2019-04-29T11:29:45.099Z,11.80
2019-04-29T11:30:45.105Z,13.10
2019-04-29T11:31:48.970Z,14.30
2019-04-29T11:32:45.111Z,11.20
2019-04-29T11:33:45.112Z,12.00
2019-04-29T11:34:48.604Z,12.10
2019-04-29T11:35:45.119Z,12.20
2019-04-29T11:36:45.123Z,12.50
2019-04-29T11:37:45.131Z,12.60
2019-04-29T11:38:45.138Z,12.70
2019-04-29T11:39:46.195Z,13.40
2019-04-29T11:40:45.145Z,14.00
2019-04-29T11:41:45.144Z,11.10
2019-04-29T11:42:45.150Z,11.80
2019-04-29T11:43:46.756Z,11.90
2019-04-29T11:44:45.162Z,10.70
2019-04-29T11:45:45.162Z,10.80
2019-04-29T11:46:49.004Z,10.70
2019-04-29T11:47:45.163Z,10.50
2019-04-29T11:48:45.167Z,9.70
2019-04-29T11:49:47.808Z,10.80
2019-04-29T11:50:49.404Z,11.70
2019-04-29T11:52:07.666Z,11.30
2019-04-29T11:52:45.183Z,12.50
2019-04-29T11:53:45.183Z,11.20
2019-04-29T11:54:45.186Z,11.40
2019-04-29T11:55:46.448Z,11.80
2019-04-29T11:56:45.188Z,11.70
2019-04-29T11:57:45.201Z,12.30
2019-04-29T11:58:45.198Z,10.80
2019-04-29T11:59:45.211Z,11.00
2019-04-29T12:00:45.199Z,10.60
2019-04-29T12:01:50.888Z,13.10
2019-04-29T12:02:46.186Z,11.80
2019-04-29T12:03:45.212Z,10.00
2019-04-29T12:04:45.214Z,9.60
2019-04-29T12:05:46.242Z,9.40
2019-04-29T12:06:45.211Z,11.50
2019-04-29T12:07:45.215Z,9.00
2019-04-29T12:08:48.162Z,8.80
2019-04-29T12:09:45.223Z,9.40
2019-04-29T12:10:52.083Z,11.50
2019-04-29T12:11:45.223Z,10.00
2019-04-29T12:12:47.762Z,9.80
2019-04-29T12:13:45.224Z,10.30
2019-04-29T12:14:45.223Z,9.50
2019-04-29T12:15:49.192Z,8.70
2019-04-29T12:16:45.230Z,10.00
2019-04-29T12:17:45.228Z,11.00
2019-04-29T12:18:45.228Z,10.40
2019-04-29T12:19:45.233Z,10.70
2019-04-29T12:20:45.236Z,10.60
2019-04-29T12:21:45.241Z,9.80
2019-04-29T12:22:48.550Z,9.80
2019-04-29T12:23:47.753Z,9.30
2019-04-29T12:24:45.244Z,8.70
2019-04-29T12:25:45.241Z,9.70
2019-04-29T12:26:45.257Z,9.70
2019-04-29T12:27:45.240Z,9.10
2019-04-29T12:28:45.267Z,8.60
2019-04-29T12:29:48.978Z,8.30
2019-04-29T12:30:45.249Z,9.20
2019-04-29T12:31:49.350Z,9.60
2019-04-29T12:32:45.247Z,10.60
2019-04-29T12:33:45.251Z,10.50
2019-04-29T12:34:45.252Z,9.80
2019-04-29T12:35:51.952Z,11.00
2019-04-29T12:36:55.943Z,9.80
2019-04-29T12:37:45.254Z,10.40
2019-04-29T12:38:49.845Z,8.60
2019-04-29T12:39:45.302Z,9.40
2019-04-29T12:40:45.543Z,8.00
2019-04-29T12:41:49.206Z,8.40
2019-04-29T12:42:45.269Z,8.40
2019-04-29T12:43:48.703Z,8.70
2019-04-29T12:44:45.822Z,9.30
2019-04-29T12:45:45.264Z,8.00
2019-04-29T12:46:45.264Z,9.50
2019-04-29T12:47:45.273Z,9.80
2019-04-29T12:48:45.272Z,9.80
2019-04-29T12:49:46.433Z,9.40
2019-04-29T12:50:45.269Z,10.20
2019-04-29T12:51:45.308Z,11.00
2019-04-29T12:52:45.277Z,9.90
2019-04-29T12:53:45.283Z,9.00
2019-04-29T12:54:46.185Z,9.20
2019-04-29T12:55:50.125Z,9.50
2019-04-29T12:56:47.648Z,9.70
2019-04-29T12:57:45.283Z,9.30
2019-04-29T12:58:50.292Z,9.30
2019-04-29T12:59:45.314Z,10.60
2019-04-29T13:00:48.984Z,12.40
2019-04-29T13:01:51.526Z,10.80
2019-04-29T13:02:45.303Z,11.10
2019-04-29T13:03:45.297Z,9.90
2019-04-29T13:04:49.827Z,9.60
2019-04-29T13:05:57.678Z,8.80
2019-04-29T13:06:45.308Z,8.70
2019-04-29T13:07:45.367Z,11.50